• Join FlightAware (Why Join?)
  • Login
  • US Flag 
06:44PM EST


 

Airport Tracker/Info


-or-


 

Live Flight TrackerFlight Track Log ✈ SKW5657 ✈ 05-May-2013 ✈ KDEN - KGJT

Flight Track Log - Related Links

Times and Time Zones

All times are in EDT time to prevent confusion due to time zone crossing. See the SKW5657 flight status page for this flight to view local times or setup timezone preferences in your user account.

Time Position Orientation Groundspeed Altitude Reporting Facility
EDT Latitude Longitude Course Direction KTS MPH feet Rate Location/Type
10:16AM 39.8500 -104.7667 270° West 179 206 7,000  Level Denver TRACON
10:17AM 39.8564 -104.7908 289° West 202 232 8,200 2,640 Climbing Denver Center
10:18AM 39.8683 -104.8886 279° West 265 305 11,000 2,460 Climbing Denver Center
10:19AM 39.8500 -105.2607 270° West  Level FlightAware Approximate
10:19AM 39.8667 -104.9961 269° West 300 345 13,800  Level Denver Center
10:20AM 39.8500 -105.4092 270° West  Level FlightAware Approximate
10:20AM 39.8650 -105.1342 269° West 314 361 17,100  Level Denver Center
10:21AM 39.8501 -105.5577 270° West  Level FlightAware Approximate
10:21AM 39.8644 -105.2517 270° West 324 373 19,500  Level Denver Center
10:22AM 39.8500 -105.7062 270° West  Level FlightAware Approximate
10:22AM 39.8622 -105.3789 269° West 326 375 21,800  Level Denver Center
10:23AM 39.8622 -105.5019 270° West 338 389 23,600 1,620 Climbing Denver Center
10:24AM 39.8600 -105.6372 269° West 348 400 25,200 1,140 Climbing Denver Center
10:25AM 39.8561 -105.7683 268° West 364 419 26,000 360 Climbing Denver Center
10:26AM 39.8433 -105.9036 263° West 369 425 26,000  Level Denver Center
10:27AM 39.8308 -106.0411 263° West 378 435 26,000  Level Denver Center
10:28AM 39.8189 -106.1822 264° West 389 448 26,000  Level Denver Center
10:29AM 39.8058 -106.3253 263° West 395 455 26,000  Level Denver Center
10:30AM 39.7925 -106.4689 263° West 396 456 26,000  Level Denver Center
10:31AM 39.7692 -106.5958 257° West 392 451 26,000  Level Denver Center
10:32AM 39.7197 -106.7539 248° West 394 453 26,000  Level Denver Center
10:33AM 39.6772 -106.8881 248° West 395 455 26,000  Level Denver Center
10:34AM 39.6364 -107.0139 247° West 395 455 26,000  Level Denver Center
10:35AM 39.5914 -107.1606 248° West 393 452 26,000  Level Denver Center
10:36AM 39.5514 -107.2856 247° West 392 451 26,000  Level Denver Center
10:38AM 39.5042 -107.4325 247° West 394 453 26,000 -840 Level Denver Center
10:39AM 39.4644 -107.5556 247° West 390 449 24,300 -2,280 Descending Denver Center
10:40AM 39.4281 -107.6725 248° West 373 429 21,400 -2,940 Descending Denver Center
10:41AM 39.3853 -107.8069 248° West 364 419 18,300 -2,760 Descending Denver Center
10:42AM 39.3464 -107.9286 248° West 355 409 15,800 -1,620 Descending Denver Center
10:43AM 39.3164 -108.0189 247° West 328 377 15,000 -840 Descending Denver Center
10:44AM 39.2761 -108.1464 248° West 315 362 14,100 -1,200 Descending Denver Center
10:45AM 39.2536 -108.2406 253° West 281 323 12,600 -1,620 Descending Denver Center
10:46AM 39.2592 -108.3428 274° West 281 323 10,800 -1,440 Descending Denver Center
10:47AM 39.2692 -108.4303 278° West 233 268 9,700 -900 Descending Denver Center
10:48AM 39.2783 -108.5183 278° West 229 264 9,000 -540 Descending Denver Center
10:49AM 39.2706 -108.5956 263° West 234 269 8,700 -1,020 Descending Denver Center
10:50AM 39.2225 -108.6356 213° Southwest 194 223 7,000 -1,260 Descending Denver Center
10:51AM 39.1797 -108.6181 162° South 163 188 6,200 -720 Descending Denver Center
10:52AM 39.1544 -108.5817 132° Southeast 131 151 5,600 -600 Descending Denver Center